sensor_id;sensor_type;location;lat;lon;timestamp;temperature;humidity
40289;DHT22;28991;52.028;5.526;2024-02-26T00:02:15;15.30;55.80
40289;DHT22;28991;52.028;5.526;2024-02-26T00:04:40;15.30;55.80
40289;DHT22;28991;52.028;5.526;2024-02-26T00:07:06;15.20;56.20
40289;DHT22;28991;52.028;5.526;2024-02-26T00:09:32;14.30;55.20
40289;DHT22;28991;52.028;5.526;2024-02-26T00:12:01;15.80;56.50
40289;DHT22;28991;52.028;5.526;2024-02-26T00:14:26;16.00;56.20
40289;DHT22;28991;52.028;5.526;2024-02-26T00:16:52;15.10;55.70
40289;DHT22;28991;52.028;5.526;2024-02-26T00:19:18;15.20;56.30
40289;DHT22;28991;52.028;5.526;2024-02-26T00:21:43;15.20;56.20
40289;DHT22;28991;52.028;5.526;2024-02-26T00:24:09;15.30;55.80
40289;DHT22;28991;52.028;5.526;2024-02-26T00:26:35;15.20;56.30
40289;DHT22;28991;52.028;5.526;2024-02-26T00:29:00;15.20;56.20
40289;DHT22;28991;52.028;5.526;2024-02-26T00:31:26;15.60;56.00
40289;DHT22;28991;52.028;5.526;2024-02-26T00:33:51;15.20;55.70
40289;DHT22;28991;52.028;5.526;2024-02-26T00:36:17;15.40;55.90
40289;DHT22;28991;52.028;5.526;2024-02-26T00:38:44;15.30;55.90
40289;DHT22;28991;52.028;5.526;2024-02-26T00:41:11;15.20;55.80
40289;DHT22;28991;52.028;5.526;2024-02-26T00:43:37;15.20;55.90
40289;DHT22;28991;52.028;5.526;2024-02-26T00:46:04;15.20;55.80
40289;DHT22;28991;52.028;5.526;2024-02-26T00:48:30;16.50;56.50
40289;DHT22;28991;52.028;5.526;2024-02-26T00:50:56;15.30;55.80
40289;DHT22;28991;52.028;5.526;2024-02-26T00:53:21;15.10;56.20
40289;DHT22;28991;52.028;5.526;2024-02-26T00:55:47;14.30;55.60
40289;DHT22;28991;52.028;5.526;2024-02-26T00:58:13;15.20;56.30
40289;DHT22;28991;52.028;5.526;2024-02-26T01:00:38;15.20;55.80
40289;DHT22;28991;52.028;5.526;2024-02-26T01:03:04;15.20;55.80
40289;DHT22;28991;52.028;5.526;2024-02-26T01:05:30;15.20;55.80
40289;DHT22;28991;52.028;5.526;2024-02-26T01:07:55;15.20;55.90
40289;DHT22;28991;52.028;5.526;2024-02-26T01:10:21;15.20;55.90
40289;DHT22;28991;52.028;5.526;2024-02-26T01:12:46;15.30;55.90
40289;DHT22;28991;52.028;5.526;2024-02-26T01:15:13;15.10;55.90
40289;DHT22;28991;52.028;5.526;2024-02-26T01:17:38;15.20;55.90
40289;DHT22;28991;52.028;5.526;2024-02-26T01:20:04;15.20;55.90
40289;DHT22;28991;52.028;5.526;2024-02-26T01:22:30;15.10;55.80
40289;DHT22;28991;52.028;5.526;2024-02-26T01:24:56;15.20;55.80
40289;DHT22;28991;52.028;5.526;2024-02-26T01:27:22;15.20;55.90
40289;DHT22;28991;52.028;5.526;2024-02-26T01:29:52;15.20;55.90
40289;DHT22;28991;52.028;5.526;2024-02-26T01:32:17;15.20;55.90
40289;DHT22;28991;52.028;5.526;2024-02-26T01:34:43;15.30;55.90
40289;DHT22;28991;52.028;5.526;2024-02-26T01:37:08;15.20;55.90
40289;DHT22;28991;52.028;5.526;2024-02-26T01:39:34;15.10;55.80
40289;DHT22;28991;52.028;5.526;2024-02-26T01:42:00;15.20;55.90
40289;DHT22;28991;52.028;5.526;2024-02-26T01:44:26;13.50;55.20
40289;DHT22;28991;52.028;5.526;2024-02-26T01:46:53;15.20;55.90
40289;DHT22;28991;52.028;5.526;2024-02-26T01:49:19;15.20;56.00
40289;DHT22;28991;52.028;5.526;2024-02-26T01:51:45;15.30;55.90
40289;DHT22;28991;52.028;5.526;2024-02-26T01:54:11;15.20;55.90
40289;DHT22;28991;52.028;5.526;2024-02-26T01:56:38;15.30;55.90
40289;DHT22;28991;52.028;5.526;2024-02-26T01:59:05;15.20;55.90
40289;DHT22;28991;52.028;5.526;2024-02-26T02:01:32;16.00;56.30
40289;DHT22;28991;52.028;5.526;2024-02-26T02:03:59;15.20;56.00
40289;DHT22;28991;52.028;5.526;2024-02-26T02:06:26;15.20;55.90
40289;DHT22;28991;52.028;5.526;2024-02-26T02:08:54;15.20;55.90
40289;DHT22;28991;52.028;5.526;2024-02-26T02:11:20;15.20;55.90
40289;DHT22;28991;52.028;5.526;2024-02-26T02:13:46;16.20;56.40
40289;DHT22;28991;52.028;5.526;2024-02-26T02:16:12;15.20;55.90
40289;DHT22;28991;52.028;5.526;2024-02-26T02:18:38;15.30;56.00
40289;DHT22;28991;52.028;5.526;2024-02-26T02:21:04;15.40;56.50
40289;DHT22;28991;52.028;5.526;2024-02-26T02:23:29;15.20;55.90
40289;DHT22;28991;52.028;5.526;2024-02-26T02:25:56;15.50;56.20
40289;DHT22;28991;52.028;5.526;2024-02-26T02:28:23;15.20;56.40
40289;DHT22;28991;52.028;5.526;2024-02-26T02:30:49;15.30;56.40
40289;DHT22;28991;52.028;5.526;2024-02-26T02:33:17;15.20;56.40
40289;DHT22;28991;52.028;5.526;2024-02-26T02:35:42;15.20;56.00
40289;DHT22;28991;52.028;5.526;2024-02-26T02:38:08;16.10;56.90
40289;DHT22;28991;52.028;5.526;2024-02-26T02:40:34;15.40;56.00
40289;DHT22;28991;52.028;5.526;2024-02-26T02:42:59;15.10;56.30
40289;DHT22;28991;52.028;5.526;2024-02-26T02:45:27;14.50;55.70
40289;DHT22;28991;52.028;5.526;2024-02-26T02:47:53;15.20;56.10
40289;DHT22;28991;52.028;5.526;2024-02-26T02:50:18;15.20;55.90
40289;DHT22;28991;52.028;5.526;2024-02-26T02:52:44;15.90;56.30
40289;DHT22;28991;52.028;5.526;2024-02-26T02:55:09;15.20;55.90
40289;DHT22;28991;52.028;5.526;2024-02-26T02:57:35;15.10;55.90
40289;DHT22;28991;52.028;5.526;2024-02-26T03:00:09;15.10;55.90
40289;DHT22;28991;52.028;5.526;2024-02-26T03:02:35;15.20;56.10
40289;DHT22;28991;52.028;5.526;2024-02-26T03:05:02;15.20;56.00
40289;DHT22;28991;52.028;5.526;2024-02-26T03:07:28;15.20;56.00
40289;DHT22;28991;52.028;5.526;2024-02-26T03:09:53;15.10;56.50
40289;DHT22;28991;52.028;5.526;2024-02-26T03:12:19;16.10;56.50
40289;DHT22;28991;52.028;5.526;2024-02-26T03:14:45;15.30;56.00
40289;DHT22;28991;52.028;5.526;2024-02-26T03:17:10;15.30;56.00
40289;DHT22;28991;52.028;5.526;2024-02-26T03:19:36;15.20;56.00
40289;DHT22;28991;52.028;5.526;2024-02-26T03:22:01;15.30;56.00
40289;DHT22;28991;52.028;5.526;2024-02-26T03:24:27;15.50;56.10
40289;DHT22;28991;52.028;5.526;2024-02-26T03:26:53;15.20;56.40
40289;DHT22;28991;52.028;5.526;2024-02-26T03:29:19;15.20;56.00
40289;DHT22;28991;52.028;5.526;2024-02-26T03:31:44;14.70;55.80
40289;DHT22;28991;52.028;5.526;2024-02-26T03:34:10;15.20;56.40
40289;DHT22;28991;52.028;5.526;2024-02-26T03:36:37;15.20;56.00
40289;DHT22;28991;52.028;5.526;2024-02-26T03:39:03;16.80;56.90
40289;DHT22;28991;52.028;5.526;2024-02-26T03:41:33;12.90;54.80
40289;DHT22;28991;52.028;5.526;2024-02-26T03:43:58;15.20;56.00
40289;DHT22;28991;52.028;5.526;2024-02-26T03:46:24;17.60;57.20
40289;DHT22;28991;52.028;5.526;2024-02-26T03:48:50;15.20;56.00
40289;DHT22;28991;52.028;5.526;2024-02-26T03:51:15;15.10;55.90
40289;DHT22;28991;52.028;5.526;2024-02-26T03:53:41;15.20;55.90
40289;DHT22;28991;52.028;5.526;2024-02-26T03:56:06;15.90;56.40
40289;DHT22;28991;52.028;5.526;2024-02-26T03:58:32;15.10;56.40
40289;DHT22;28991;52.028;5.526;2024-02-26T04:00:59;15.10;56.40
40289;DHT22;28991;52.028;5.526;2024-02-26T04:03:25;15.10;55.90
40289;DHT22;28991;52.028;5.526;2024-02-26T04:05:51;15.20;56.40
40289;DHT22;28991;52.028;5.526;2024-02-26T04:08:16;15.00;55.90
40289;DHT22;28991;52.028;5.526;2024-02-26T04:10:42;15.80;56.40
40289;DHT22;28991;52.028;5.526;2024-02-26T04:13:07;15.20;56.00
40289;DHT22;28991;52.028;5.526;2024-02-26T04:15:33;15.20;56.00
40289;DHT22;28991;52.028;5.526;2024-02-26T04:17:59;15.20;56.00
40289;DHT22;28991;52.028;5.526;2024-02-26T04:20:24;15.00;56.40
40289;DHT22;28991;52.028;5.526;2024-02-26T04:22:50;15.10;55.90
40289;DHT22;28991;52.028;5.526;2024-02-26T04:25:15;15.10;56.00
40289;DHT22;28991;52.028;5.526;2024-02-26T04:27:41;15.20;56.00
40289;DHT22;28991;52.028;5.526;2024-02-26T04:30:07;15.10;56.40
40289;DHT22;28991;52.028;5.526;2024-02-26T04:32:33;14.90;55.80
40289;DHT22;28991;52.028;5.526;2024-02-26T04:35:00;15.60;56.30
40289;DHT22;28991;52.028;5.526;2024-02-26T04:37:26;14.80;55.90
40289;DHT22;28991;52.028;5.526;2024-02-26T04:39:59;15.20;56.10
40289;DHT22;28991;52.028;5.526;2024-02-26T04:42:25;15.10;55.90
40289;DHT22;28991;52.028;5.526;2024-02-26T04:44:51;14.70;55.80
40289;DHT22;28991;52.028;5.526;2024-02-26T04:47:16;15.10;56.40
40289;DHT22;28991;52.028;5.526;2024-02-26T04:49:42;15.10;56.10
40289;DHT22;28991;52.028;5.526;2024-02-26T04:52:07;15.10;56.00
40289;DHT22;28991;52.028;5.526;2024-02-26T04:54:33;15.20;56.00
40289;DHT22;28991;52.028;5.526;2024-02-26T04:56:58;14.70;55.80
40289;DHT22;28991;52.028;5.526;2024-02-26T04:59:24;15.10;56.20
40289;DHT22;28991;52.028;5.526;2024-02-26T05:01:49;15.10;56.50
40289;DHT22;28991;52.028;5.526;2024-02-26T05:04:17;14.90;56.40
40289;DHT22;28991;52.028;5.526;2024-02-26T05:06:42;15.10;56.40
40289;DHT22;28991;52.028;5.526;2024-02-26T05:09:08;15.10;56.20
40289;DHT22;28991;52.028;5.526;2024-02-26T05:11:33;14.50;55.70
40289;DHT22;28991;52.028;5.526;2024-02-26T05:13:59;15.10;55.90
40289;DHT22;28991;52.028;5.526;2024-02-26T05:16:26;14.50;55.60
40289;DHT22;28991;52.028;5.526;2024-02-26T05:18:52;15.10;56.10
40289;DHT22;28991;52.028;5.526;2024-02-26T05:21:18;15.10;56.00
40289;DHT22;28991;52.028;5.526;2024-02-26T05:23:44;15.10;56.50
40289;DHT22;28991;52.028;5.526;2024-02-26T05:26:10;15.10;56.00
40289;DHT22;28991;52.028;5.526;2024-02-26T05:28:36;15.10;56.00
40289;DHT22;28991;52.028;5.526;2024-02-26T05:31:04;15.10;56.00
40289;DHT22;28991;52.028;5.526;2024-02-26T05:33:30;15.10;56.00
40289;DHT22;28991;52.028;5.526;2024-02-26T05:35:56;15.10;56.50
40289;DHT22;28991;52.028;5.526;2024-02-26T05:38:21;15.00;56.00
40289;DHT22;28991;52.028;5.526;2024-02-26T05:40:47;15.00;55.90
40289;DHT22;28991;52.028;5.526;2024-02-26T05:43:13;15.20;56.00
40289;DHT22;28991;52.028;5.526;2024-02-26T05:45:41;16.70;56.90
40289;DHT22;28991;52.028;5.526;2024-02-26T05:48:06;15.20;56.50
40289;DHT22;28991;52.028;5.526;2024-02-26T05:50:32;15.10;56.10
40289;DHT22;28991;52.028;5.526;2024-02-26T05:52:57;15.10;55.90
40289;DHT22;28991;52.028;5.526;2024-02-26T05:55:23;15.20;56.00
40289;DHT22;28991;52.028;5.526;2024-02-26T05:57:48;14.80;56.20
40289;DHT22;28991;52.028;5.526;2024-02-26T06:00:15;15.10;56.00
40289;DHT22;28991;52.028;5.526;2024-02-26T06:02:41;15.20;55.90
40289;DHT22;28991;52.028;5.526;2024-02-26T06:05:06;15.20;55.60
40289;DHT22;28991;52.028;5.526;2024-02-26T06:07:34;15.20;54.30
40289;DHT22;28991;52.028;5.526;2024-02-26T06:10:00;15.30;54.10
40289;DHT22;28991;52.028;5.526;2024-02-26T06:12:26;14.20;52.90
40289;DHT22;28991;52.028;5.526;2024-02-26T06:14:53;15.50;53.80
40289;DHT22;28991;52.028;5.526;2024-02-26T06:17:19;15.50;54.00
40289;DHT22;28991;52.028;5.526;2024-02-26T06:19:45;15.60;53.20
40289;DHT22;28991;52.028;5.526;2024-02-26T06:22:10;15.60;52.30
40289;DHT22;28991;52.028;5.526;2024-02-26T06:24:36;15.80;53.40
40289;DHT22;28991;52.028;5.526;2024-02-26T06:27:02;16.20;53.20
40289;DHT22;28991;52.028;5.526;2024-02-26T06:29:28;15.70;52.80
40289;DHT22;28991;52.028;5.526;2024-02-26T06:31:53;15.80;53.40
40289;DHT22;28991;52.028;5.526;2024-02-26T06:34:19;15.80;53.00
40289;DHT22;28991;52.028;5.526;2024-02-26T06:36:44;15.80;53.40
40289;DHT22;28991;52.028;5.526;2024-02-26T06:39:10;15.90;52.10
40289;DHT22;28991;52.028;5.526;2024-02-26T06:41:36;16.50;53.10
40289;DHT22;28991;52.028;5.526;2024-02-26T06:44:01;17.90;53.50
40289;DHT22;28991;52.028;5.526;2024-02-26T06:46:27;15.90;52.90
40289;DHT22;28991;52.028;5.526;2024-02-26T06:48:56;14.30;51.70
40289;DHT22;28991;52.028;5.526;2024-02-26T06:51:22;15.10;52.00
40289;DHT22;28991;52.028;5.526;2024-02-26T06:53:48;16.00;52.40
40289;DHT22;28991;52.028;5.526;2024-02-26T06:56:14;16.10;52.30
40289;DHT22;28991;52.028;5.526;2024-02-26T06:58:40;16.10;52.10
40289;DHT22;28991;52.028;5.526;2024-02-26T07:01:05;16.10;52.20
40289;DHT22;28991;52.028;5.526;2024-02-26T07:03:31;16.10;52.10
40289;DHT22;28991;52.028;5.526;2024-02-26T07:05:58;16.00;52.40
40289;DHT22;28991;52.028;5.526;2024-02-26T07:08:23;13.90;50.70
40289;DHT22;28991;52.028;5.526;2024-02-26T07:10:49;16.30;52.00
40289;DHT22;28991;52.028;5.526;2024-02-26T07:13:14;16.10;51.80
40289;DHT22;28991;52.028;5.526;2024-02-26T07:15:40;16.20;51.90
40289;DHT22;28991;52.028;5.526;2024-02-26T07:18:06;16.20;52.30
40289;DHT22;28991;52.028;5.526;2024-02-26T07:20:31;16.20;52.20
40289;DHT22;28991;52.028;5.526;2024-02-26T07:22:57;16.60;52.40
40289;DHT22;28991;52.028;5.526;2024-02-26T07:25:23;16.20;52.10
40289;DHT22;28991;52.028;5.526;2024-02-26T07:27:50;16.20;52.10
40289;DHT22;28991;52.028;5.526;2024-02-26T07:30:15;16.20;52.00
40289;DHT22;28991;52.028;5.526;2024-02-26T07:32:42;16.20;52.10
40289;DHT22;28991;52.028;5.526;2024-02-26T07:35:08;16.60;50.90
40289;DHT22;28991;52.028;5.526;2024-02-26T07:37:34;16.30;49.90
40289;DHT22;28991;52.028;5.526;2024-02-26T07:40:00;16.30;50.70
40289;DHT22;28991;52.028;5.526;2024-02-26T07:42:25;16.40;51.00
40289;DHT22;28991;52.028;5.526;2024-02-26T07:44:51;16.40;50.60
40289;DHT22;28991;52.028;5.526;2024-02-26T07:47:18;16.50;50.00
40289;DHT22;28991;52.028;5.526;2024-02-26T07:49:43;16.20;50.40
40289;DHT22;28991;52.028;5.526;2024-02-26T07:52:10;16.90;50.70
40289;DHT22;28991;52.028;5.526;2024-02-26T07:54:35;16.50;50.30
40289;DHT22;28991;52.028;5.526;2024-02-26T07:57:01;16.40;49.90
40289;DHT22;28991;52.028;5.526;2024-02-26T07:59:30;16.10;49.90
40289;DHT22;28991;52.028;5.526;2024-02-26T08:01:56;16.60;50.30
40289;DHT22;28991;52.028;5.526;2024-02-26T08:04:22;16.60;50.40
40289;DHT22;28991;52.028;5.526;2024-02-26T08:06:47;15.50;49.40
40289;DHT22;28991;52.028;5.526;2024-02-26T08:09:13;16.80;50.40
40289;DHT22;28991;52.028;5.526;2024-02-26T08:11:38;16.70;50.70
40289;DHT22;28991;52.028;5.526;2024-02-26T08:14:04;17.30;50.80
40289;DHT22;28991;52.028;5.526;2024-02-26T08:16:30;16.80;51.00
40289;DHT22;28991;52.028;5.526;2024-02-26T08:18:56;16.80;50.60
40289;DHT22;28991;52.028;5.526;2024-02-26T08:21:21;16.80;51.10
40289;DHT22;28991;52.028;5.526;2024-02-26T08:23:47;17.00;51.30
40289;DHT22;28991;52.028;5.526;2024-02-26T08:26:12;17.00;50.90
40289;DHT22;28991;52.028;5.526;2024-02-26T08:28:38;17.00;51.40
40289;DHT22;28991;52.028;5.526;2024-02-26T08:31:04;17.00;51.40
40289;DHT22;28991;52.028;5.526;2024-02-26T08:33:30;17.00;50.90
40289;DHT22;28991;52.028;5.526;2024-02-26T08:35:56;17.10;51.40
40289;DHT22;28991;52.028;5.526;2024-02-26T08:38:22;17.20;50.80
40289;DHT22;28991;52.028;5.526;2024-02-26T08:40:48;17.20;50.70
40289;DHT22;28991;52.028;5.526;2024-02-26T08:43:14;16.90;51.10
40289;DHT22;28991;52.028;5.526;2024-02-26T08:45:39;17.30;51.10
40289;DHT22;28991;52.028;5.526;2024-02-26T08:48:05;17.30;50.80
40289;DHT22;28991;52.028;5.526;2024-02-26T08:50:31;17.40;50.90
40289;DHT22;28991;52.028;5.526;2024-02-26T08:52:57;17.40;51.50
40289;DHT22;28991;52.028;5.526;2024-02-26T08:55:22;17.30;51.40
40289;DHT22;28991;52.028;5.526;2024-02-26T08:57:48;17.70;51.60
40289;DHT22;28991;52.028;5.526;2024-02-26T09:00:14;16.90;51.20
40289;DHT22;28991;52.028;5.526;2024-02-26T09:02:41;17.60;51.60
40289;DHT22;28991;52.028;5.526;2024-02-26T09:05:09;17.50;51.50
40289;DHT22;28991;52.028;5.526;2024-02-26T09:07:35;17.50;51.40
40289;DHT22;28991;52.028;5.526;2024-02-26T09:10:01;17.70;50.80
40289;DHT22;28991;52.028;5.526;2024-02-26T09:12:27;17.50;51.20
40289;DHT22;28991;52.028;5.526;2024-02-26T09:14:52;17.60;51.50
40289;DHT22;28991;52.028;5.526;2024-02-26T09:17:18;17.60;51.10
40289;DHT22;28991;52.028;5.526;2024-02-26T09:19:44;17.50;51.50
40289;DHT22;28991;52.028;5.526;2024-02-26T09:22:09;17.60;51.40
40289;DHT22;28991;52.028;5.526;2024-02-26T09:24:35;17.60;51.20
40289;DHT22;28991;52.028;5.526;2024-02-26T09:27:01;17.70;51.10
40289;DHT22;28991;52.028;5.526;2024-02-26T09:29:27;17.60;50.40
40289;DHT22;28991;52.028;5.526;2024-02-26T09:31:52;18.50;51.50
40289;DHT22;28991;52.028;5.526;2024-02-26T09:34:18;17.60;51.50
40289;DHT22;28991;52.028;5.526;2024-02-26T09:36:43;17.60;51.60
40289;DHT22;28991;52.028;5.526;2024-02-26T09:39:09;17.60;51.20
40289;DHT22;28991;52.028;5.526;2024-02-26T09:41:37;17.70;51.70
40289;DHT22;28991;52.028;5.526;2024-02-26T09:44:04;18.50;51.60
40289;DHT22;28991;52.028;5.526;2024-02-26T09:46:30;17.60;51.60
40289;DHT22;28991;52.028;5.526;2024-02-26T09:48:56;17.60;50.70
40289;DHT22;28991;52.028;5.526;2024-02-26T09:51:26;17.60;51.20
40289;DHT22;28991;52.028;5.526;2024-02-26T09:53:52;17.60;51.10
40289;DHT22;28991;52.028;5.526;2024-02-26T09:56:18;17.70;51.10
40289;DHT22;28991;52.028;5.526;2024-02-26T09:58:43;18.20;51.70
40289;DHT22;28991;52.028;5.526;2024-02-26T10:01:17;17.70;51.70
40289;DHT22;28991;52.028;5.526;2024-02-26T10:03:43;17.70;51.70
40289;DHT22;28991;52.028;5.526;2024-02-26T10:06:10;17.70;51.80
40289;DHT22;28991;52.028;5.526;2024-02-26T10:08:36;17.10;51.60
40289;DHT22;28991;52.028;5.526;2024-02-26T10:11:03;17.70;52.00
40289;DHT22;28991;52.028;5.526;2024-02-26T10:13:30;17.90;52.10
40289;DHT22;28991;52.028;5.526;2024-02-26T10:15:55;17.70;52.20
40289;DHT22;28991;52.028;5.526;2024-02-26T10:18:22;17.80;52.20
40289;DHT22;28991;52.028;5.526;2024-02-26T10:21:02;17.80;51.80
40289;DHT22;28991;52.028;5.526;2024-02-26T10:23:28;17.80;51.90
40289;DHT22;28991;52.028;5.526;2024-02-26T10:25:56;17.80;51.50
40289;DHT22;28991;52.028;5.526;2024-02-26T10:28:23;17.70;51.80
40289;DHT22;28991;52.028;5.526;2024-02-26T10:30:48;17.80;52.00
40289;DHT22;28991;52.028;5.526;2024-02-26T10:33:14;18.00;51.60
40289;DHT22;28991;52.028;5.526;2024-02-26T10:35:45;17.70;51.60
40289;DHT22;28991;52.028;5.526;2024-02-26T10:38:10;17.90;51.90
40289;DHT22;28991;52.028;5.526;2024-02-26T10:40:37;17.70;51.80
40289;DHT22;28991;52.028;5.526;2024-02-26T10:43:02;17.70;52.00
40289;DHT22;28991;52.028;5.526;2024-02-26T10:45:28;17.80;52.10
40289;DHT22;28991;52.028;5.526;2024-02-26T10:47:54;17.80;51.90
40289;DHT22;28991;52.028;5.526;2024-02-26T10:50:19;17.80;51.70
40289;DHT22;28991;52.028;5.526;2024-02-26T10:52:45;18.00;51.90
40289;DHT22;28991;52.028;5.526;2024-02-26T10:55:17;17.90;52.00
40289;DHT22;28991;52.028;5.526;2024-02-26T10:57:46;17.80;52.00
40289;DHT22;28991;52.028;5.526;2024-02-26T11:00:15;17.50;51.50
40289;DHT22;28991;52.028;5.526;2024-02-26T11:02:41;17.80;51.50
40289;DHT22;28991;52.028;5.526;2024-02-26T11:05:08;17.80;51.90
40289;DHT22;28991;52.028;5.526;2024-02-26T11:07:37;17.80;52.00
40289;DHT22;28991;52.028;5.526;2024-02-26T11:10:05;17.80;52.10
40289;DHT22;28991;52.028;5.526;2024-02-26T11:12:32;17.90;51.70
40289;DHT22;28991;52.028;5.526;2024-02-26T11:15:01;17.80;52.10
40289;DHT22;28991;52.028;5.526;2024-02-26T11:17:28;17.80;52.00
40289;DHT22;28991;52.028;5.526;2024-02-26T11:19:58;17.80;52.10
40289;DHT22;28991;52.028;5.526;2024-02-26T11:22:25;17.80;52.00
40289;DHT22;28991;52.028;5.526;2024-02-26T11:24:55;17.80;52.00
40289;DHT22;28991;52.028;5.526;2024-02-26T11:27:26;17.90;51.70
40289;DHT22;28991;52.028;5.526;2024-02-26T11:29:56;17.70;51.60
40289;DHT22;28991;52.028;5.526;2024-02-26T11:32:26;17.90;51.70
40289;DHT22;28991;52.028;5.526;2024-02-26T11:34:53;17.80;51.50
40289;DHT22;28991;52.028;5.526;2024-02-26T11:37:19;17.80;51.40
40289;DHT22;28991;52.028;5.526;2024-02-26T11:39:46;17.80;51.60
40289;DHT22;28991;52.028;5.526;2024-02-26T11:42:14;17.90;51.70
40289;DHT22;28991;52.028;5.526;2024-02-26T11:44:40;18.00;51.80
40289;DHT22;28991;52.028;5.526;2024-02-26T11:47:21;17.90;51.60
40289;DHT22;28991;52.028;5.526;2024-02-26T11:49:47;18.10;51.60
40289;DHT22;28991;52.028;5.526;2024-02-26T11:52:14;17.50;51.30
40289;DHT22;28991;52.028;5.526;2024-02-26T11:54:43;18.00;51.90
40289;DHT22;28991;52.028;5.526;2024-02-26T11:59:50;18.00;51.20
40289;DHT22;28991;52.028;5.526;2024-02-26T12:02:45;18.10;51.80
40289;DHT22;28991;52.028;5.526;2024-02-26T12:05:17;18.00;51.90
40289;DHT22;28991;52.028;5.526;2024-02-26T12:07:52;18.60;52.10
40289;DHT22;28991;52.028;5.526;2024-02-26T12:10:35;18.30;51.70
40289;DHT22;28991;52.028;5.526;2024-02-26T12:13:08;17.90;51.30
40289;DHT22;28991;52.028;5.526;2024-02-26T12:15:39;18.10;51.60
40289;DHT22;28991;52.028;5.526;2024-02-26T12:18:07;17.80;51.40
40289;DHT22;28991;52.028;5.526;2024-02-26T12:20:34;18.00;51.00
40289;DHT22;28991;52.028;5.526;2024-02-26T12:23:02;18.00;51.50
40289;DHT22;28991;52.028;5.526;2024-02-26T12:25:29;18.10;51.60
40289;DHT22;28991;52.028;5.526;2024-02-26T12:27:56;18.00;51.60
40289;DHT22;28991;52.028;5.526;2024-02-26T12:30:22;18.00;51.50
40289;DHT22;28991;52.028;5.526;2024-02-26T12:32:52;18.00;51.50
40289;DHT22;28991;52.028;5.526;2024-02-26T12:35:22;18.00;51.50
40289;DHT22;28991;52.028;5.526;2024-02-26T12:37:48;18.80;52.10
40289;DHT22;28991;52.028;5.526;2024-02-26T12:40:14;18.10;51.70
40289;DHT22;28991;52.028;5.526;2024-02-26T12:42:40;18.00;51.80
40289;DHT22;28991;52.028;5.526;2024-02-26T12:45:14;18.00;51.90
40289;DHT22;28991;52.028;5.526;2024-02-26T12:47:45;18.00;52.00
40289;DHT22;28991;52.028;5.526;2024-02-26T12:50:15;18.00;52.10
40289;DHT22;28991;52.028;5.526;2024-02-26T12:52:47;18.10;52.30
40289;DHT22;28991;52.028;5.526;2024-02-26T12:55:18;18.00;52.20
40289;DHT22;28991;52.028;5.526;2024-02-26T12:57:45;18.00;52.20
40289;DHT22;28991;52.028;5.526;2024-02-26T13:00:13;18.10;52.40
40289;DHT22;28991;52.028;5.526;2024-02-26T13:02:40;18.10;52.20
40289;DHT22;28991;52.028;5.526;2024-02-26T13:05:08;18.50;52.60
40289;DHT22;28991;52.028;5.526;2024-02-26T13:07:34;17.80;52.20
40289;DHT22;28991;52.028;5.526;2024-02-26T13:10:06;18.00;52.30
40289;DHT22;28991;52.028;5.526;2024-02-26T13:12:32;18.10;52.30
40289;DHT22;28991;52.028;5.526;2024-02-26T13:15:02;18.00;52.10
40289;DHT22;28991;52.028;5.526;2024-02-26T13:17:31;18.20;52.00
40289;DHT22;28991;52.028;5.526;2024-02-26T13:19:57;18.20;51.80
40289;DHT22;28991;52.028;5.526;2024-02-26T13:22:22;18.20;51.90
40289;DHT22;28991;52.028;5.526;2024-02-26T13:24:56;18.20;51.70
40289;DHT22;28991;52.028;5.526;2024-02-26T13:27:25;18.30;51.20
40289;DHT22;28991;52.028;5.526;2024-02-26T13:30:11;18.30;51.50
40289;DHT22;28991;52.028;5.526;2024-02-26T13:32:39;18.30;51.70
40289;DHT22;28991;52.028;5.526;2024-02-26T13:35:08;18.50;51.80
40289;DHT22;28991;52.028;5.526;2024-02-26T13:37:35;18.40;51.30
40289;DHT22;28991;52.028;5.526;2024-02-26T13:40:10;18.40;51.40
40289;DHT22;28991;52.028;5.526;2024-02-26T13:42:37;18.30;51.60
40289;DHT22;28991;52.028;5.526;2024-02-26T13:45:03;18.60;51.70
40289;DHT22;28991;52.028;5.526;2024-02-26T13:47:32;18.30;51.00
40289;DHT22;28991;52.028;5.526;2024-02-26T13:49:58;18.70;51.50
40289;DHT22;28991;52.028;5.526;2024-02-26T13:52:25;18.40;51.60
40289;DHT22;28991;52.028;5.526;2024-02-26T13:54:51;18.30;51.80
40289;DHT22;28991;52.028;5.526;2024-02-26T13:57:16;18.40;52.00
40289;DHT22;28991;52.028;5.526;2024-02-26T13:59:43;18.40;51.40
40289;DHT22;28991;52.028;5.526;2024-02-26T14:02:09;18.40;51.60
40289;DHT22;28991;52.028;5.526;2024-02-26T14:04:35;18.40;51.80
40289;DHT22;28991;52.028;5.526;2024-02-26T14:07:01;18.40;51.70
40289;DHT22;28991;52.028;5.526;2024-02-26T14:09:27;18.40;51.50
40289;DHT22;28991;52.028;5.526;2024-02-26T14:11:52;18.40;50.60
40289;DHT22;28991;52.028;5.526;2024-02-26T14:14:18;18.40;50.80
40289;DHT22;28991;52.028;5.526;2024-02-26T14:16:43;18.40;51.20
40289;DHT22;28991;52.028;5.526;2024-02-26T14:19:09;18.40;51.30
40289;DHT22;28991;52.028;5.526;2024-02-26T14:21:35;18.40;51.40
40289;DHT22;28991;52.028;5.526;2024-02-26T14:24:00;18.50;51.50
40289;DHT22;28991;52.028;5.526;2024-02-26T14:26:26;18.30;51.40
40289;DHT22;28991;52.028;5.526;2024-02-26T14:28:51;18.50;51.50
40289;DHT22;28991;52.028;5.526;2024-02-26T14:31:17;18.60;51.40
40289;DHT22;28991;52.028;5.526;2024-02-26T14:33:43;18.50;51.40
40289;DHT22;28991;52.028;5.526;2024-02-26T14:36:09;18.40;51.30
40289;DHT22;28991;52.028;5.526;2024-02-26T14:38:35;18.80;50.90
40289;DHT22;28991;52.028;5.526;2024-02-26T14:41:01;18.50;51.00
40289;DHT22;28991;52.028;5.526;2024-02-26T14:43:28;18.50;51.40
40289;DHT22;28991;52.028;5.526;2024-02-26T14:45:53;18.60;51.60
40289;DHT22;28991;52.028;5.526;2024-02-26T14:48:19;18.40;51.40
40289;DHT22;28991;52.028;5.526;2024-02-26T14:50:45;18.40;51.40
40289;DHT22;28991;52.028;5.526;2024-02-26T14:53:10;18.50;51.50
40289;DHT22;28991;52.028;5.526;2024-02-26T14:55:36;18.50;51.40
40289;DHT22;28991;52.028;5.526;2024-02-26T14:58:01;18.40;51.20
40289;DHT22;28991;52.028;5.526;2024-02-26T15:00:27;18.50;51.90
40289;DHT22;28991;52.028;5.526;2024-02-26T15:02:53;18.40;51.20
40289;DHT22;28991;52.028;5.526;2024-02-26T15:05:20;18.40;51.00
40289;DHT22;28991;52.028;5.526;2024-02-26T15:07:45;18.30;50.70
40289;DHT22;28991;52.028;5.526;2024-02-26T15:10:11;18.60;50.80
40289;DHT22;28991;52.028;5.526;2024-02-26T15:12:38;18.40;50.70
40289;DHT22;28991;52.028;5.526;2024-02-26T15:15:04;18.30;50.50
40289;DHT22;28991;52.028;5.526;2024-02-26T15:17:29;18.30;50.50
40289;DHT22;28991;52.028;5.526;2024-02-26T15:19:57;18.30;49.70
40289;DHT22;28991;52.028;5.526;2024-02-26T15:22:24;18.30;49.70
40289;DHT22;28991;52.028;5.526;2024-02-26T15:24:50;18.20;49.70
40289;DHT22;28991;52.028;5.526;2024-02-26T15:27:15;18.20;49.30
40289;DHT22;28991;52.028;5.526;2024-02-26T15:29:42;18.10;49.90